createdAt,value
2018-12-11T00:01:37.021Z,99.75
2018-12-11T00:04:09.716Z,99.34
2018-12-11T00:06:35.851Z,98.62
2018-12-11T00:09:09.626Z,98.43
2018-12-11T00:11:39.367Z,98.19
2018-12-11T00:14:08.845Z,98.43
2018-12-11T00:16:38.406Z,98.85
2018-12-11T00:19:04.596Z,99.15
2018-12-11T00:21:37.424Z,99.05
2018-12-11T00:24:11.098Z,98.43
2018-12-11T00:26:43.695Z,98.74
2018-12-11T00:29:16.166Z,98.69
2018-12-11T00:31:43.950Z,99.15
2018-12-11T00:34:16.316Z,98.67
2018-12-11T00:36:49.144Z,98.50
2018-12-11T00:39:15.300Z,98.71
2018-12-11T00:41:48.128Z,99.06
2018-12-11T00:44:14.287Z,98.79
2018-12-11T00:46:40.428Z,98.93
2018-12-11T00:49:06.578Z,98.77
2018-12-11T00:51:32.709Z,98.96
2018-12-11T00:53:58.859Z,98.86
2018-12-11T00:56:25.002Z,98.95
2018-12-11T00:58:51.145Z,99.23
2018-12-11T01:01:17.288Z,98.99
2018-12-11T01:03:43.445Z,99.26
2018-12-11T01:06:09.588Z,99.45
2018-12-11T01:08:35.972Z,99.04
2018-12-11T01:11:02.129Z,98.83
2018-12-11T01:13:28.315Z,98.92
2018-12-11T01:15:54.455Z,98.81
2018-12-11T01:18:20.577Z,99.22
2018-12-11T01:20:46.779Z,99.21
2018-12-11T01:23:12.912Z,99.29
2018-12-11T01:25:39.070Z,99.59
2018-12-11T01:28:05.243Z,99.12
2018-12-11T01:30:31.404Z,99.44
2018-12-11T01:32:57.542Z,99.12
2018-12-11T01:35:23.687Z,98.72
2018-12-11T01:37:49.799Z,98.77
2018-12-11T01:40:15.950Z,99.00
2018-12-11T01:42:42.079Z,98.11
2018-12-11T01:45:08.261Z,98.14
2018-12-11T01:47:34.383Z,98.37
2018-12-11T01:50:00.533Z,98.48
2018-12-11T01:52:26.681Z,97.70
2018-12-11T01:54:52.824Z,97.80
2018-12-11T01:57:18.965Z,97.27
2018-12-11T01:59:45.108Z,97.97
2018-12-11T02:02:11.230Z,98.16
2018-12-11T02:04:37.368Z,98.10
2018-12-11T02:07:03.531Z,97.99
2018-12-11T02:09:29.683Z,97.78
2018-12-11T02:11:55.827Z,98.24
2018-12-11T02:14:21.974Z,98.57
2018-12-11T02:16:48.107Z,98.75
2018-12-11T02:19:14.303Z,98.43
2018-12-11T02:21:42.074Z,98.44
2018-12-11T02:24:08.475Z,97.84
2018-12-11T02:26:34.608Z,98.28
2018-12-11T02:29:00.763Z,97.88
2018-12-11T02:31:26.919Z,98.18
2018-12-11T02:33:53.080Z,98.08
2018-12-11T02:36:19.226Z,97.83
2018-12-11T02:38:45.578Z,97.86
2018-12-11T02:41:11.705Z,97.97
2018-12-11T02:43:37.824Z,98.10
2018-12-11T02:46:03.978Z,98.55
2018-12-11T02:48:30.131Z,98.26
2018-12-11T02:50:56.258Z,98.06
2018-12-11T02:53:22.394Z,97.97
2018-12-11T02:55:48.545Z,98.37
2018-12-11T02:58:14.674Z,98.25
2018-12-11T03:00:40.818Z,98.27
2018-12-11T03:03:06.959Z,98.51
2018-12-11T03:05:33.088Z,98.63
2018-12-11T03:07:59.218Z,98.81
2018-12-11T03:10:25.344Z,99.05
2018-12-11T03:12:51.484Z,98.48
2018-12-11T03:15:17.615Z,98.15
2018-12-11T03:17:43.752Z,98.59
2018-12-11T03:20:09.885Z,98.18
2018-12-11T03:22:36.019Z,98.30
2018-12-11T03:25:02.309Z,98.58
2018-12-11T03:27:28.475Z,98.42
2018-12-11T03:29:54.597Z,98.66
2018-12-11T03:32:20.744Z,98.27
2018-12-11T03:34:46.873Z,97.88
2018-12-11T03:37:13.026Z,97.12
2018-12-11T03:39:39.156Z,97.62
2018-12-11T03:42:05.359Z,97.51
2018-12-11T03:44:31.505Z,97.35
2018-12-11T03:46:57.633Z,97.08
2018-12-11T03:49:23.763Z,97.08
2018-12-11T03:51:49.899Z,97.14
2018-12-11T03:54:16.040Z,97.86
2018-12-11T03:56:42.204Z,97.97
2018-12-11T03:59:08.339Z,97.82
2018-12-11T04:01:34.492Z,98.26
2018-12-11T04:04:00.635Z,98.02
2018-12-11T04:06:26.755Z,97.44
2018-12-11T04:08:52.903Z,98.08
2018-12-11T04:11:19.063Z,98.16
2018-12-11T04:13:45.209Z,97.73
2018-12-11T04:16:11.358Z,97.07
2018-12-11T04:18:37.527Z,96.63
2018-12-11T04:21:03.914Z,96.76
2018-12-11T04:23:30.041Z,97.26
2018-12-11T04:25:56.155Z,97.05
2018-12-11T04:28:22.308Z,97.11
2018-12-11T04:30:48.419Z,97.65
2018-12-11T04:33:14.553Z,96.35
2018-12-11T04:35:40.679Z,96.21
2018-12-11T04:40:28.925Z,95.74
2018-12-11T04:42:55.071Z,96.07
2018-12-11T04:45:21.204Z,96.37
2018-12-11T04:47:47.379Z,96.37
2018-12-11T04:50:13.522Z,96.12
2018-12-11T04:52:39.643Z,96.54
2018-12-11T04:55:06.046Z,96.70
2018-12-11T04:57:32.190Z,96.31
2018-12-11T04:59:58.323Z,96.44
2018-12-11T05:02:24.452Z,96.74
2018-12-11T05:04:50.615Z,96.40
2018-12-11T05:07:16.755Z,97.17
2018-12-11T05:09:42.902Z,96.42
2018-12-11T05:12:09.034Z,96.80
2018-12-11T05:14:35.229Z,96.72
2018-12-11T05:17:01.355Z,97.30
2018-12-11T05:19:27.484Z,96.65
2018-12-11T05:21:53.614Z,96.50
2018-12-11T05:24:19.766Z,96.43
2018-12-11T05:26:45.916Z,96.21
2018-12-11T05:29:12.059Z,96.70
2018-12-11T05:31:38.185Z,96.34
2018-12-11T05:34:04.325Z,96.56
2018-12-11T05:36:30.471Z,96.63
2018-12-11T05:38:56.643Z,97.20
2018-12-11T05:41:22.798Z,97.00
2018-12-11T05:43:48.948Z,97.11
2018-12-11T05:46:15.083Z,97.31
2018-12-11T05:48:41.205Z,97.48
2018-12-11T05:51:07.367Z,97.85
2018-12-11T05:53:33.502Z,97.29
2018-12-11T05:55:59.642Z,96.76
2018-12-11T05:58:25.770Z,96.46
2018-12-11T06:00:51.935Z,96.60
2018-12-11T06:03:18.076Z,95.91
2018-12-11T06:05:44.240Z,96.21
2018-12-11T06:08:10.385Z,94.93
2018-12-11T06:10:36.541Z,95.67
2018-12-11T06:13:02.729Z,96.35
2018-12-11T06:15:29.736Z,95.64
2018-12-11T06:17:55.863Z,95.87
2018-12-11T06:20:22.046Z,95.42
2018-12-11T06:22:48.184Z,94.91
2018-12-11T06:25:14.340Z,94.46
2018-12-11T06:30:51.659Z,95.64
2018-12-11T06:33:26.388Z,95.69
2018-12-11T06:39:00.846Z,95.44
2018-12-11T06:41:33.536Z,95.44
2018-12-11T06:44:06.600Z,95.72
2018-12-11T06:46:42.693Z,95.62
2018-12-11T06:49:19.531Z,95.42
2018-12-11T06:51:58.359Z,95.23
2018-12-11T06:54:30.493Z,96.22
2018-12-11T06:57:10.029Z,96.29
2018-12-11T06:59:46.682Z,96.27
2018-12-11T07:02:26.211Z,96.18
2018-12-11T07:05:05.147Z,96.75
2018-12-11T07:07:40.075Z,96.19
2018-12-11T07:10:09.918Z,96.73
2018-12-11T07:12:46.607Z,96.66
2018-12-11T07:15:12.861Z,96.68
2018-12-11T07:17:38.999Z,96.86
2018-12-11T07:20:15.604Z,96.25
2018-12-11T07:22:41.747Z,95.69
2018-12-11T07:25:14.247Z,96.25
2018-12-11T07:27:46.752Z,96.87
2018-12-11T07:30:19.451Z,96.58
2018-12-11T07:35:47.031Z,96.46
2018-12-11T07:38:21.532Z,96.76
2018-12-11T07:43:30.005Z,96.53
2018-12-11T07:46:09.279Z,97.16
2018-12-11T07:48:38.955Z,97.41
2018-12-11T07:51:11.231Z,97.32
2018-12-11T07:53:37.388Z,97.22
2018-12-11T07:56:10.114Z,97.35
2018-12-11T07:58:36.264Z,97.45
2018-12-11T08:01:02.397Z,97.32
2018-12-11T08:03:35.292Z,96.20
2018-12-11T08:06:05.207Z,96.33
2018-12-11T08:08:37.351Z,96.61
2018-12-11T08:11:03.487Z,95.99
2018-12-11T08:13:36.172Z,96.48
2018-12-11T08:16:02.330Z,95.85
2018-12-11T08:18:28.547Z,95.29
2018-12-11T08:20:55.635Z,95.50
2018-12-11T08:23:21.819Z,95.22
2018-12-11T08:25:58.762Z,96.17
2018-12-11T08:28:36.101Z,95.84
2018-12-11T08:31:12.448Z,96.06
2018-12-11T08:33:45.010Z,95.37
2018-12-11T08:36:17.471Z,95.61
2018-12-11T08:38:51.329Z,95.34
2018-12-11T08:43:48.535Z,96.05
2018-12-11T08:46:14.659Z,96.19
2018-12-11T08:48:40.819Z,95.90
2018-12-11T08:51:12.998Z,95.75
2018-12-11T08:53:45.748Z,96.31
2018-12-11T08:56:11.907Z,96.28
2018-12-11T08:58:38.066Z,95.83
2018-12-11T09:01:12.463Z,96.15
2018-12-11T09:03:49.387Z,96.23
2018-12-11T09:06:15.539Z,95.63
2018-12-11T09:08:47.603Z,95.99
2018-12-11T09:11:19.991Z,95.29
2018-12-11T09:13:52.802Z,95.50
2018-12-11T09:16:25.507Z,95.48
2018-12-11T09:18:51.757Z,95.92
2018-12-11T09:21:17.931Z,95.46
2018-12-11T09:23:50.241Z,95.31
2018-12-11T09:26:24.760Z,95.37
2018-12-11T09:28:58.617Z,95.36
2018-12-11T09:31:24.852Z,95.04
2018-12-11T09:33:54.140Z,94.97
2018-12-11T09:36:20.316Z,93.86
2018-12-11T09:38:46.465Z,95.44
2018-12-11T09:44:05.401Z,94.54
2018-12-11T09:46:34.786Z,94.51
2018-12-11T09:49:09.480Z,94.70
2018-12-11T09:51:42.279Z,93.48
2018-12-11T09:54:14.988Z,94.57
2018-12-11T09:56:47.876Z,93.85
2018-12-11T09:59:27.217Z,94.34
2018-12-11T10:01:59.278Z,94.29
2018-12-11T10:04:25.391Z,95.22
2018-12-11T10:06:51.523Z,94.94
2018-12-11T10:09:17.793Z,94.80
2018-12-11T10:11:43.962Z,94.64
2018-12-11T10:14:31.748Z,94.93
2018-12-11T10:17:04.612Z,94.00
2018-12-11T10:19:37.255Z,94.56
2018-12-11T10:22:12.044Z,94.85
2018-12-11T10:24:38.173Z,94.96
2018-12-11T10:27:04.331Z,94.84
2018-12-11T10:32:30.775Z,95.12
2018-12-11T10:34:56.947Z,94.73
2018-12-11T10:37:23.230Z,94.44
2018-12-11T10:39:56.523Z,94.49
2018-12-11T10:42:22.683Z,94.18
2018-12-11T10:44:48.817Z,94.93
2018-12-11T10:50:21.265Z,94.82
2018-12-11T10:52:47.427Z,94.79
2018-12-11T10:55:30.400Z,94.76
2018-12-11T10:57:56.720Z,94.74
2018-12-11T11:00:28.892Z,94.55
2018-12-11T11:03:00.924Z,94.25
2018-12-11T11:05:27.088Z,94.19
2018-12-11T11:07:53.404Z,94.77
2018-12-11T11:10:19.583Z,95.51
2018-12-11T11:12:45.845Z,94.89
2018-12-11T11:15:12.016Z,94.46
2018-12-11T11:17:38.264Z,94.51
2018-12-11T11:20:05.350Z,94.87
2018-12-11T11:22:38.149Z,95.16
2018-12-11T11:25:06.491Z,93.82
2018-12-11T11:27:32.625Z,94.57
2018-12-11T11:29:58.804Z,94.55
2018-12-11T11:32:24.960Z,95.05
2018-12-11T11:34:57.561Z,94.87
2018-12-11T11:37:34.068Z,94.83
2018-12-11T11:40:00.211Z,95.17
2018-12-11T11:42:40.124Z,94.73
2018-12-11T11:51:12.585Z,94.44
2018-12-11T11:53:45.392Z,95.12
2018-12-11T11:56:11.534Z,94.92
2018-12-11T11:58:41.398Z,94.61
2018-12-11T12:01:07.558Z,95.29
2018-12-11T12:03:46.814Z,95.27
2018-12-11T12:06:12.970Z,95.10
2018-12-11T12:08:39.118Z,95.07
2018-12-11T12:11:05.263Z,95.34
2018-12-11T12:13:31.453Z,95.39
2018-12-11T12:15:57.667Z,94.81
2018-12-11T12:18:23.818Z,95.05
2018-12-11T12:20:49.997Z,94.75
2018-12-11T12:23:16.272Z,94.71
2018-12-11T12:25:42.417Z,94.55
2018-12-11T12:28:08.590Z,94.54
2018-12-11T12:30:35.194Z,95.13
2018-12-11T12:33:01.371Z,94.39
2018-12-11T12:35:27.541Z,94.97
2018-12-11T12:37:53.689Z,94.60
2018-12-11T12:40:19.854Z,93.64
2018-12-11T12:42:46.019Z,93.41
2018-12-11T12:45:12.192Z,93.78
2018-12-11T12:47:38.344Z,92.69
2018-12-11T12:50:04.625Z,93.08
2018-12-11T12:52:30.765Z,92.94
2018-12-11T12:54:57.062Z,93.86
2018-12-11T12:57:23.196Z,93.69
2018-12-11T12:59:49.339Z,93.81
2018-12-11T13:02:15.502Z,94.48
2018-12-11T13:04:41.732Z,95.11
2018-12-11T13:07:07.880Z,95.45
2018-12-11T13:09:34.052Z,95.02
2018-12-11T13:12:00.237Z,94.64
2018-12-11T13:14:26.380Z,95.21
2018-12-11T13:16:52.515Z,95.46
2018-12-11T13:19:18.646Z,95.35
2018-12-11T13:21:44.812Z,95.03
2018-12-11T13:24:10.958Z,94.85
2018-12-11T13:26:37.141Z,95.79
2018-12-11T13:29:03.308Z,95.44
2018-12-11T13:31:29.465Z,94.98
2018-12-11T13:33:55.598Z,94.83
2018-12-11T13:36:21.788Z,95.14
2018-12-11T13:38:47.956Z,95.82
2018-12-11T13:41:14.241Z,95.68
2018-12-11T13:43:40.510Z,95.36
2018-12-11T13:46:06.707Z,95.70
2018-12-11T13:48:32.984Z,96.21
2018-12-11T13:50:59.175Z,95.11
2018-12-11T13:53:25.367Z,95.16
2018-12-11T13:55:51.531Z,93.94
2018-12-11T13:58:17.701Z,94.17
2018-12-11T14:00:43.863Z,94.40
2018-12-11T14:03:10.019Z,94.41
2018-12-11T14:05:36.204Z,93.69
2018-12-11T14:08:02.365Z,93.88
2018-12-11T14:10:28.553Z,94.54
2018-12-11T14:12:54.731Z,94.41
2018-12-11T14:15:20.941Z,94.33
2018-12-11T14:17:47.120Z,94.61
2018-12-11T14:20:13.250Z,94.20
2018-12-11T14:22:39.493Z,94.53
2018-12-11T14:25:06.300Z,94.36
2018-12-11T14:27:32.459Z,93.87
2018-12-11T14:29:58.732Z,94.57
2018-12-11T14:32:25.045Z,95.24
2018-12-11T14:34:51.208Z,95.27
2018-12-11T14:37:17.404Z,95.64
2018-12-11T14:39:43.579Z,95.61
2018-12-11T14:42:09.744Z,95.70
2018-12-11T14:44:35.900Z,96.22
2018-12-11T14:47:02.043Z,95.91
2018-12-11T14:49:28.194Z,96.65
2018-12-11T14:51:54.345Z,96.25
2018-12-11T14:54:21.426Z,96.36
2018-12-11T14:56:47.600Z,96.49
2018-12-11T14:59:13.793Z,96.78
2018-12-11T15:01:39.955Z,96.40
2018-12-11T15:04:06.121Z,96.84
2018-12-11T15:06:32.276Z,95.97
2018-12-11T15:09:00.484Z,96.48
2018-12-11T15:11:26.635Z,95.59
2018-12-11T15:13:52.775Z,95.23
2018-12-11T15:16:19.567Z,94.69
2018-12-11T15:18:45.753Z,93.91
2018-12-11T15:21:11.894Z,93.63
2018-12-11T15:23:38.035Z,92.50
2018-12-11T15:26:05.421Z,93.37
2018-12-11T15:28:31.843Z,92.63
2018-12-11T15:31:06.224Z,93.92
2018-12-11T15:33:32.647Z,93.39
2018-12-11T15:35:58.848Z,91.98
2018-12-11T15:38:24.983Z,91.76
2018-12-11T15:40:51.139Z,92.57
2018-12-11T15:43:17.627Z,93.00
2018-12-11T15:45:43.781Z,92.50
2018-12-11T15:48:09.909Z,93.95
2018-12-11T15:50:36.069Z,92.83
2018-12-11T15:53:02.295Z,92.76
2018-12-11T15:55:28.462Z,92.50
2018-12-11T15:57:54.618Z,93.19
2018-12-11T16:00:20.789Z,93.23
2018-12-11T16:02:46.936Z,92.39
2018-12-11T16:05:13.082Z,91.49
2018-12-11T16:07:39.267Z,91.23
2018-12-11T16:10:05.569Z,92.69
2018-12-11T16:12:31.716Z,92.23
2018-12-11T16:14:57.859Z,91.81
2018-12-11T16:17:24.007Z,91.55
2018-12-11T16:19:50.155Z,91.85
2018-12-11T16:22:16.331Z,92.44
2018-12-11T16:24:42.486Z,92.39
2018-12-11T16:27:08.632Z,92.29
2018-12-11T16:29:34.785Z,92.70
2018-12-11T16:32:00.951Z,92.97
2018-12-11T16:34:27.107Z,93.77
2018-12-11T16:36:53.264Z,93.65
2018-12-11T16:39:19.395Z,93.76
2018-12-11T16:41:45.559Z,94.31
2018-12-11T16:44:11.710Z,93.55
2018-12-11T16:46:37.879Z,93.67
2018-12-11T16:49:04.062Z,94.36
2018-12-11T16:51:30.207Z,93.66
2018-12-11T16:53:56.343Z,93.51
2018-12-11T16:56:22.524Z,94.24
2018-12-11T16:58:48.679Z,94.84
2018-12-11T17:01:14.812Z,94.47
2018-12-11T17:03:40.969Z,94.09
2018-12-11T17:06:07.128Z,94.10
2018-12-11T17:08:33.295Z,93.23
2018-12-11T17:10:59.447Z,92.77
2018-12-11T17:13:25.611Z,92.42
2018-12-11T17:15:52.119Z,92.54
2018-12-11T17:18:18.271Z,93.51
2018-12-11T17:20:44.818Z,93.21
2018-12-11T17:23:10.992Z,93.57
2018-12-11T17:25:37.253Z,94.01
2018-12-11T17:28:03.403Z,93.12
2018-12-11T17:30:29.545Z,94.12
2018-12-11T17:32:55.699Z,94.26
2018-12-11T17:35:21.851Z,94.30
2018-12-11T17:37:48.022Z,94.49
2018-12-11T17:40:14.296Z,94.62
2018-12-11T17:42:40.451Z,93.83
2018-12-11T17:45:06.595Z,94.82
2018-12-11T17:47:32.743Z,94.85
2018-12-11T17:49:58.879Z,94.58
2018-12-11T17:52:25.023Z,95.18
2018-12-11T17:54:51.196Z,94.98
2018-12-11T17:57:17.369Z,94.89
2018-12-11T17:59:43.507Z,94.71
2018-12-11T18:02:11.692Z,94.85
2018-12-11T18:04:37.827Z,94.49
2018-12-11T18:07:03.972Z,93.89
2018-12-11T18:09:30.181Z,93.72
2018-12-11T18:11:56.337Z,93.69
2018-12-11T18:14:22.499Z,93.36
2018-12-11T18:16:48.676Z,92.95
2018-12-11T18:19:14.824Z,93.31
2018-12-11T18:21:40.950Z,92.88
2018-12-11T18:24:07.122Z,92.85
2018-12-11T18:26:33.268Z,92.32
2018-12-11T18:28:59.441Z,92.77
2018-12-11T18:31:25.595Z,92.48
2018-12-11T18:33:51.878Z,92.56
2018-12-11T18:36:18.175Z,92.90
2018-12-11T18:38:44.332Z,93.54
2018-12-11T18:41:10.574Z,93.97
2018-12-11T18:43:36.782Z,93.53
2018-12-11T18:46:03.080Z,94.32
2018-12-11T18:48:29.248Z,94.14
2018-12-11T18:50:55.387Z,94.35
2018-12-11T18:53:21.532Z,94.44
2018-12-11T18:55:47.664Z,94.24
2018-12-11T18:58:13.798Z,94.70
2018-12-11T19:00:39.942Z,94.15
2018-12-11T19:03:06.654Z,94.01
2018-12-11T19:05:32.833Z,93.62
2018-12-11T19:07:59.000Z,93.25
2018-12-11T19:10:25.142Z,93.50
2018-12-11T19:12:51.277Z,92.55
2018-12-11T19:15:17.554Z,92.91
2018-12-11T19:17:43.689Z,92.69
2018-12-11T19:20:09.887Z,92.92
2018-12-11T19:22:36.056Z,93.49
2018-12-11T19:25:05.588Z,93.33
2018-12-11T19:27:31.761Z,93.28
2018-12-11T19:29:57.912Z,94.00
2018-12-11T19:32:24.097Z,94.00
2018-12-11T19:34:50.239Z,94.26
2018-12-11T19:37:16.415Z,93.90
2018-12-11T19:39:42.584Z,93.85
2018-12-11T19:42:08.742Z,94.01
2018-12-11T19:44:34.876Z,93.85
2018-12-11T19:47:01.035Z,93.94
2018-12-11T19:49:27.205Z,94.02
2018-12-11T19:51:53.410Z,94.17
2018-12-11T19:54:19.525Z,94.52
2018-12-11T19:56:45.687Z,94.22
2018-12-11T19:59:11.828Z,94.67
2018-12-11T20:01:37.999Z,94.25
2018-12-11T20:04:04.919Z,94.17
2018-12-11T20:06:31.147Z,94.64
2018-12-11T20:08:57.324Z,94.30
2018-12-11T20:11:23.540Z,94.22
2018-12-11T20:13:49.687Z,93.96
2018-12-11T20:16:15.821Z,94.41
2018-12-11T20:18:41.943Z,94.08
2018-12-11T20:21:08.123Z,94.19
2018-12-11T20:23:34.306Z,94.76
2018-12-11T20:26:00.473Z,94.74
2018-12-11T20:28:26.676Z,94.71
2018-12-11T20:30:52.811Z,94.51
2018-12-11T20:33:18.965Z,94.46
2018-12-11T20:35:45.099Z,95.03
2018-12-11T20:38:11.259Z,95.23
2018-12-11T20:40:37.426Z,95.15
2018-12-11T20:43:03.914Z,94.77
2018-12-11T20:45:30.083Z,95.22
2018-12-11T20:47:56.237Z,95.22
2018-12-11T20:50:22.415Z,95.15
2018-12-11T20:52:48.611Z,95.50
2018-12-11T20:55:14.772Z,95.66
2018-12-11T20:57:40.931Z,95.50
2018-12-11T21:00:08.675Z,95.23
2018-12-11T21:02:34.875Z,95.51
2018-12-11T21:05:01.050Z,95.84
2018-12-11T21:07:27.211Z,95.59
2018-12-11T21:09:53.361Z,95.79
2018-12-11T21:12:19.518Z,95.96
2018-12-11T21:14:45.683Z,95.42
2018-12-11T21:17:11.849Z,95.04
2018-12-11T21:19:37.993Z,95.66
2018-12-11T21:22:04.159Z,95.57
2018-12-11T21:24:30.308Z,95.62
2018-12-11T21:26:56.721Z,95.92
2018-12-11T21:29:23.443Z,95.08
2018-12-11T21:31:49.599Z,95.12
2018-12-11T21:34:15.729Z,95.56
2018-12-11T21:36:41.861Z,94.89
2018-12-11T21:39:08.031Z,95.58
2018-12-11T21:41:34.171Z,95.65
2018-12-11T21:44:00.299Z,95.16
2018-12-11T21:46:26.430Z,95.13
2018-12-11T21:48:52.594Z,95.62
2018-12-11T21:51:18.741Z,95.62
2018-12-11T21:53:44.891Z,95.25
2018-12-11T21:56:11.058Z,95.58
2018-12-11T21:58:37.599Z,95.00
2018-12-11T22:01:03.806Z,94.77
2018-12-11T22:03:30.210Z,95.16
2018-12-11T22:05:56.460Z,94.72
2018-12-11T22:08:22.639Z,95.22
2018-12-11T22:10:48.831Z,94.92
2018-12-11T22:13:14.947Z,94.96
2018-12-11T22:15:41.124Z,95.05
2018-12-11T22:18:07.303Z,95.36
2018-12-11T22:20:33.499Z,95.55
2018-12-11T22:22:59.659Z,95.33
2018-12-11T22:25:25.795Z,95.33
2018-12-11T22:27:51.963Z,95.55
2018-12-11T22:30:18.118Z,95.07
2018-12-11T22:32:44.254Z,94.89
2018-12-11T22:35:10.435Z,95.14
2018-12-11T22:37:36.564Z,95.42
2018-12-11T22:40:03.988Z,95.33
2018-12-11T22:42:30.546Z,95.68
2018-12-11T22:44:56.711Z,94.85
2018-12-11T22:47:22.863Z,95.75
2018-12-11T22:49:49.019Z,95.05
2018-12-11T22:52:15.179Z,95.67
2018-12-11T22:54:41.675Z,95.65
2018-12-11T22:57:07.876Z,95.16
2018-12-11T22:59:34.040Z,94.91
2018-12-11T23:02:00.327Z,94.54
2018-12-11T23:04:26.500Z,94.49
2018-12-11T23:06:52.676Z,94.20
2018-12-11T23:09:18.823Z,94.71
2018-12-11T23:11:44.967Z,95.43
2018-12-11T23:14:11.104Z,95.83
2018-12-11T23:16:37.318Z,95.82
2018-12-11T23:19:03.491Z,95.51
2018-12-11T23:21:37.376Z,95.57
2018-12-11T23:24:09.938Z,95.84
2018-12-11T23:26:36.095Z,95.83
2018-12-11T23:29:02.294Z,95.48
2018-12-11T23:31:28.435Z,94.74
2018-12-11T23:33:55.021Z,94.87
2018-12-11T23:36:34.836Z,95.50
2018-12-11T23:39:00.987Z,95.33
2018-12-11T23:41:33.955Z,95.86
2018-12-11T23:44:06.818Z,95.48
2018-12-11T23:46:41.688Z,95.41
2018-12-11T23:49:09.842Z,95.97
2018-12-11T23:51:44.511Z,95.72
2018-12-11T23:54:24.164Z,95.78
2018-12-11T23:57:00.224Z,95.94
2018-12-11T23:59:36.849Z,95.51
